Time;durP1;ratioP1;P1;durP2;ratioP2;P2;SDS_P1;SDS_P2;PMS_P1;PMS_P2;Temp;Humidity;BMP_temperature;BMP_pressure;BME280_temperature;BME280_humidity;BME280_pressure;Samples;Min_cycle;Max_cycle;Signal;HPM_P1;HPM_P2
2021/09/24 00:01:21;;;;;;;23.93;4.50;;;13.70;99.90;;;;;;5126332;27;20206;-73
2021/09/24 00:03:49;;;;;;;15.27;4.60;;;13.60;99.90;;;;;;5125878;27;20731;-73
2021/09/24 00:06:15;;;;;;;19.43;4.63;;;13.50;99.90;;;;;;5125975;27;20616;-73
2021/09/24 00:08:42;;;;;;;13.67;4.17;;;13.60;99.90;;;;;;5126446;27;20232;-73
2021/09/24 00:11:09;;;;;;;20.43;4.70;;;13.50;99.90;;;;;;5126173;27;20228;-73
2021/09/24 00:13:35;;;;;;;18.77;4.13;;;13.50;99.90;;;;;;5126458;27;20660;-73
2021/09/24 00:16:02;;;;;;;14.97;4.70;;;13.50;99.90;;;;;;5125698;28;20241;-73
2021/09/24 00:18:29;;;;;;;16.30;4.40;;;13.50;99.90;;;;;;5125834;27;20225;-73
2021/09/24 00:20:57;;;;;;;20.73;4.20;;;13.40;99.90;;;;;;5126050;28;20201;-72
2021/09/24 00:23:23;;;;;;;19.83;4.23;;;13.40;99.90;;;;;;5126419;27;20201;-73
2021/09/24 00:25:50;;;;;;;20.90;4.57;;;13.40;99.90;;;;;;5125866;27;20209;-72
2021/09/24 00:28:17;;;;;;;21.90;4.40;;;13.40;99.90;;;;;;5125835;28;20209;-73
2021/09/24 00:30:43;;;;;;;12.93;4.00;;;13.30;99.90;;;;;;5126027;28;20237;-73
2021/09/24 00:33:10;;;;;;;22.30;5.17;;;13.30;99.90;;;;;;5125831;28;20201;-73
2021/09/24 00:35:37;;;;;;;22.23;4.80;;;13.30;99.90;;;;;;5125712;28;20229;-73
2021/09/24 00:38:04;;;;;;;18.80;4.33;;;13.30;99.90;;;;;;5125824;28;20209;-73
2021/09/24 00:40:34;;;;;;;19.63;4.83;;;13.30;99.90;;;;;;5125920;28;20262;-73
2021/09/24 00:43:02;;;;;;;17.83;4.67;;;13.30;99.90;;;;;;5125493;28;20667;-73
2021/09/24 00:45:29;;;;;;;20.07;4.37;;;13.20;99.90;;;;;;5126190;28;20303;-72
2021/09/24 00:47:55;;;;;;;20.00;4.87;;;13.20;99.90;;;;;;5125939;28;20209;-73
2021/09/24 00:50:22;;;;;;;19.00;4.80;;;13.20;99.90;;;;;;5125848;28;20216;-72
2021/09/24 00:52:53;;;;;;;19.87;3.63;;;13.20;99.90;;;;;;5125931;28;20209;-72
2021/09/24 00:55:21;;;;;;;18.13;4.33;;;13.20;99.90;;;;;;5125789;27;21200;-72
2021/09/24 00:57:48;;;;;;;22.90;4.40;;;13.20;99.90;;;;;;5125926;27;20298;-72
2021/09/24 01:00:15;;;;;;;20.03;5.03;;;13.10;99.90;;;;;;5125600;28;20212;-72
2021/09/24 01:02:42;;;;;;;20.10;4.60;;;13.10;99.90;;;;;;5125495;27;20209;-72
2021/09/24 01:05:10;;;;;;;20.80;3.90;;;13.10;99.90;;;;;;5125524;28;20219;-72
2021/09/24 01:07:37;;;;;;;19.93;4.40;;;13.10;99.90;;;;;;5125670;28;20209;-72
2021/09/24 01:10:05;;;;;;;12.90;4.03;;;13.00;99.90;;;;;;5125752;28;20211;-72
2021/09/24 01:12:34;;;;;;;19.10;4.03;;;13.00;99.90;;;;;;5125619;28;20605;-73
2021/09/24 01:15:02;;;;;;;14.20;4.07;;;13.00;99.90;;;;;;5112112;27;20712;-73
2021/09/24 01:17:29;;;;;;;18.73;4.03;;;13.00;99.90;;;;;;5104197;28;20234;-73
2021/09/24 01:19:56;;;;;;;22.23;4.03;;;12.90;99.90;;;;;;5104861;28;20205;-72
2021/09/24 01:22:24;;;;;;;18.37;4.67;;;12.90;99.90;;;;;;5105084;28;20237;-73
2021/09/24 01:24:50;;;;;;;17.67;4.73;;;13.00;99.90;;;;;;5105280;28;20206;-73
2021/09/24 01:27:17;;;;;;;16.80;3.87;;;12.90;99.90;;;;;;5105267;28;20210;-73
2021/09/24 01:29:49;;;;;;;17.97;3.97;;;12.90;99.90;;;;;;5105033;28;20723;-73
2021/09/24 01:32:16;;;;;;;15.93;4.03;;;12.90;99.90;;;;;;5109058;28;20190;-72
2021/09/24 01:34:42;;;;;;;20.17;4.73;;;12.90;99.90;;;;;;5108700;28;20252;-73
2021/09/24 01:37:09;;;;;;;19.67;4.03;;;12.90;99.90;;;;;;5108292;28;20719;-73
2021/09/24 01:39:37;;;;;;;14.73;4.37;;;12.90;99.90;;;;;;5108417;28;20574;-72
2021/09/24 01:42:04;;;;;;;20.43;4.43;;;12.90;99.90;;;;;;5108323;28;20287;-73
2021/09/24 01:44:31;;;;;;;15.73;3.93;;;12.90;99.90;;;;;;5108165;28;20741;-73
2021/09/24 01:46:58;;;;;;;21.20;4.40;;;12.90;99.90;;;;;;5107918;28;20246;-73
2021/09/24 01:49:24;;;;;;;19.50;4.27;;;12.90;99.90;;;;;;5108234;28;20674;-73
2021/09/24 01:51:51;;;;;;;20.43;5.00;;;12.80;99.90;;;;;;5095019;28;20203;-73
2021/09/24 01:54:21;;;;;;;18.80;4.13;;;12.80;99.90;;;;;;5090693;28;20230;-73
2021/09/24 01:56:49;;;;;;;20.20;4.13;;;12.80;99.90;;;;;;5090579;28;20292;-73
2021/09/24 01:59:15;;;;;;;12.60;3.60;;;12.80;99.90;;;;;;5090211;28;20764;-73
2021/09/24 02:01:42;;;;;;;18.73;4.27;;;12.80;99.90;;;;;;5090596;28;20607;-73
2021/09/24 02:04:09;;;;;;;25.03;4.70;;;12.80;99.90;;;;;;5090544;28;20233;-73
2021/09/24 02:06:35;;;;;;;19.80;6.17;;;12.80;99.90;;;;;;5090571;28;20206;-73
2021/09/24 02:09:02;;;;;;;20.27;4.27;;;12.90;99.90;;;;;;5090427;28;20268;-73
2021/09/24 02:11:28;;;;;;;16.40;3.73;;;12.90;99.90;;;;;;5090404;28;20203;-73
2021/09/24 02:13:56;;;;;;;19.67;4.03;;;12.90;99.90;;;;;;5090364;28;20225;-73
2021/09/24 02:16:23;;;;;;;18.70;3.90;;;12.90;99.90;;;;;;5107810;28;20279;-72
2021/09/24 02:18:50;;;;;;;25.67;4.60;;;12.90;99.90;;;;;;5110676;28;20317;-72
2021/09/24 02:21:16;;;;;;;14.33;4.27;;;12.80;99.90;;;;;;5110674;28;20259;-72
2021/09/24 02:23:43;;;;;;;19.33;4.03;;;12.80;99.90;;;;;;5110496;28;20734;-73
2021/09/24 02:26:09;;;;;;;21.60;4.23;;;12.80;99.90;;;;;;5110413;28;20299;-73
2021/09/24 02:28:37;;;;;;;16.97;3.57;;;12.80;99.90;;;;;;5113112;27;20203;-72
2021/09/24 02:31:09;;;;;;;18.77;3.83;;;12.80;99.90;;;;;;5110125;28;20207;-73
2021/09/24 02:33:36;;;;;;;16.80;4.23;;;12.80;99.90;;;;;;5095529;28;20206;-72
2021/09/24 02:36:03;;;;;;;20.03;4.93;;;12.80;99.90;;;;;;5089813;28;20254;-72
2021/09/24 02:38:29;;;;;;;16.30;3.77;;;12.80;99.90;;;;;;5090118;28;20472;-72
2021/09/24 02:40:56;;;;;;;18.03;3.77;;;12.80;99.90;;;;;;5089753;28;20260;-72
2021/09/24 02:43:23;;;;;;;13.73;3.73;;;12.80;99.90;;;;;;5090797;28;20199;-72
2021/09/24 02:45:49;;;;;;;17.13;4.10;;;12.80;99.90;;;;;;5090594;28;20276;-72
2021/09/24 02:48:17;;;;;;;21.23;4.47;;;12.80;99.90;;;;;;5089902;28;20225;-73
2021/09/24 02:50:44;;;;;;;24.83;4.13;;;12.70;99.90;;;;;;5089864;28;20210;-73
2021/09/24 02:53:11;;;;;;;17.73;3.83;;;12.80;99.90;;;;;;5089621;28;20265;-73
2021/09/24 02:55:37;;;;;;;18.23;4.43;;;12.80;99.90;;;;;;5089803;28;20256;-73
2021/09/24 02:58:04;;;;;;;19.63;4.30;;;12.80;99.90;;;;;;5089465;28;20246;-74
2021/09/24 03:00:31;;;;;;;22.43;5.13;;;12.80;99.90;;;;;;5089423;28;20207;-73
2021/09/24 03:02:58;;;;;;;20.00;4.60;;;12.80;99.90;;;;;;5089259;28;20215;-73
2021/09/24 03:05:26;;;;;;;17.33;4.33;;;12.80;99.90;;;;;;5089361;28;20207;-73
2021/09/24 03:07:52;;;;;;;16.53;4.00;;;12.90;99.90;;;;;;5089546;28;20202;-73
2021/09/24 03:10:19;;;;;;;22.93;4.20;;;12.80;99.90;;;;;;5088998;28;20611;-73
2021/09/24 03:12:46;;;;;;;14.50;4.60;;;12.80;99.90;;;;;;5089151;28;20802;-73
2021/09/24 03:15:14;;;;;;;19.00;3.77;;;12.90;99.90;;;;;;5089138;28;20227;-73
2021/09/24 03:17:41;;;;;;;17.77;4.00;;;12.90;99.90;;;;;;5089286;28;20235;-73
2021/09/24 03:20:10;;;;;;;21.47;4.67;;;12.90;99.90;;;;;;5089160;28;20207;-73
2021/09/24 03:22:38;;;;;;;21.43;4.77;;;12.90;99.90;;;;;;5089311;28;20210;-73
2021/09/24 03:25:05;;;;;;;22.43;4.10;;;12.90;99.90;;;;;;5088891;28;20220;-73
2021/09/24 03:27:33;;;;;;;16.10;4.30;;;12.90;99.90;;;;;;5089129;28;20210;-73
2021/09/24 03:30:00;;;;;;;18.87;4.43;;;12.90;99.90;;;;;;5096448;28;20286;-73
2021/09/24 03:32:26;;;;;;;22.07;4.70;;;12.90;99.90;;;;;;5109397;28;20257;-73
2021/09/24 03:34:53;;;;;;;16.40;3.87;;;12.90;99.90;;;;;;5109302;28;20206;-73
2021/09/24 03:37:20;;;;;;;19.87;5.00;;;12.90;99.90;;;;;;5108887;28;20844;-73
2021/09/24 03:39:48;;;;;;;14.63;4.10;;;12.90;99.90;;;;;;5109078;28;20239;-73
2021/09/24 03:42:14;;;;;;;19.30;4.33;;;12.90;99.90;;;;;;5108790;28;20293;-73
2021/09/24 03:44:41;;;;;;;15.73;3.87;;;12.90;99.90;;;;;;5108924;28;21015;-71
2021/09/24 03:47:08;;;;;;;19.37;4.67;;;12.90;99.90;;;;;;5109071;28;20206;-72
2021/09/24 03:49:34;;;;;;;22.67;4.30;;;12.90;99.90;;;;;;5109103;28;20582;-72
2021/09/24 03:52:02;;;;;;;19.47;4.33;;;12.90;99.90;;;;;;5109014;28;20210;-72
2021/09/24 03:54:28;;;;;;;19.07;4.13;;;12.90;99.90;;;;;;5108002;28;20233;-74
2021/09/24 03:56:56;;;;;;;16.83;4.17;;;12.90;99.90;;;;;;5109070;28;20290;-73
2021/09/24 03:59:23;;;;;;;22.33;4.33;;;12.90;99.90;;;;;;5108345;28;20246;-73
2021/09/24 04:01:50;;;;;;;21.73;4.73;;;12.90;99.90;;;;;;5108868;28;20210;-72
2021/09/24 04:04:17;;;;;;;22.90;4.17;;;12.90;99.90;;;;;;5108457;28;20660;-73
2021/09/24 04:06:43;;;;;;;14.03;4.00;;;12.90;99.90;;;;;;5108918;27;20298;-74
2021/09/24 04:09:10;;;;;;;15.97;3.63;;;12.90;99.90;;;;;;5108591;28;20722;-73
2021/09/24 04:11:37;;;;;;;23.40;4.27;;;12.90;99.90;;;;;;5108859;28;20209;-74
2021/09/24 04:14:05;;;;;;;21.60;4.37;;;12.90;99.90;;;;;;5108707;28;20206;-74
2021/09/24 04:16:32;;;;;;;16.97;3.60;;;12.90;99.90;;;;;;5108696;28;20279;-74
2021/09/24 04:18:59;;;;;;;18.60;4.13;;;12.90;99.90;;;;;;5108496;28;20230;-72
2021/09/24 04:21:26;;;;;;;18.60;3.97;;;12.80;99.90;;;;;;5107452;28;20218;-72
2021/09/24 04:23:52;;;;;;;16.33;3.93;;;12.80;99.90;;;;;;5108620;28;20202;-72
2021/09/24 04:26:19;;;;;;;17.40;4.60;;;12.90;99.90;;;;;;5108127;28;20668;-72
2021/09/24 04:28:46;;;;;;;18.03;4.00;;;12.90;99.90;;;;;;5108617;28;20202;-73
2021/09/24 04:31:14;;;;;;;19.10;3.80;;;12.80;99.90;;;;;;5108473;28;20259;-71
2021/09/24 04:33:40;;;;;;;13.70;3.60;;;12.80;99.90;;;;;;5108557;28;20206;-71
2021/09/24 04:36:07;;;;;;;15.37;3.60;;;12.80;99.90;;;;;;5108538;28;20229;-71
2021/09/24 04:38:34;;;;;;;15.10;3.83;;;12.80;99.90;;;;;;5108634;28;20233;-71
2021/09/24 04:41:00;;;;;;;21.33;4.90;;;12.80;99.90;;;;;;5108758;28;20259;-71
2021/09/24 04:43:27;;;;;;;19.80;3.90;;;12.80;99.90;;;;;;5108550;28;20213;-71
2021/09/24 04:45:54;;;;;;;17.57;4.17;;;12.90;99.90;;;;;;5107747;28;20213;-72
2021/09/24 04:48:22;;;;;;;15.17;4.00;;;12.90;99.90;;;;;;5108125;28;20273;-71
2021/09/24 04:50:49;;;;;;;20.27;4.23;;;12.90;99.90;;;;;;5108242;28;20733;-71
2021/09/24 04:53:15;;;;;;;16.73;4.07;;;12.90;99.90;;;;;;5108228;28;20221;-71
2021/09/24 04:55:42;;;;;;;22.47;4.33;;;12.80;99.90;;;;;;5108407;28;20263;-71
2021/09/24 04:58:08;;;;;;;17.70;4.57;;;12.80;99.90;;;;;;5107597;28;20744;-71
2021/09/24 05:00:35;;;;;;;16.43;4.07;;;12.80;99.90;;;;;;5108145;28;20245;-71
2021/09/24 05:03:02;;;;;;;20.67;4.57;;;12.80;99.90;;;;;;5108082;28;20210;-71
2021/09/24 05:05:30;;;;;;;19.20;4.50;;;12.80;99.90;;;;;;5111120;28;20236;-71
2021/09/24 05:07:57;;;;;;;21.17;4.23;;;12.80;99.90;;;;;;5111890;28;20202;-71
2021/09/24 05:10:23;;;;;;;20.90;4.00;;;12.80;99.90;;;;;;5111500;28;20720;-72
2021/09/24 05:12:50;;;;;;;20.83;4.20;;;12.80;99.90;;;;;;5112033;28;20267;-71
2021/09/24 05:15:16;;;;;;;19.53;4.57;;;12.80;99.90;;;;;;5111888;28;20222;-71
2021/09/24 05:17:43;;;;;;;17.50;3.77;;;12.80;99.90;;;;;;5111899;28;20237;-72
2021/09/24 05:20:11;;;;;;;17.50;3.43;;;12.80;99.90;;;;;;5111350;28;20671;-72
2021/09/24 05:22:39;;;;;;;16.97;4.03;;;12.80;99.90;;;;;;5111975;28;20293;-72
2021/09/24 05:25:07;;;;;;;17.30;4.37;;;12.80;99.90;;;;;;5112141;28;20605;-72
2021/09/24 05:27:33;;;;;;;13.33;3.63;;;12.80;99.90;;;;;;5111917;28;20259;-72
2021/09/24 05:30:00;;;;;;;14.20;4.47;;;12.80;99.90;;;;;;5111990;28;20210;-72
2021/09/24 05:32:26;;;;;;;15.60;4.33;;;12.80;99.90;;;;;;5111757;28;20250;-72
2021/09/24 05:34:53;;;;;;;19.20;4.43;;;12.80;99.90;;;;;;5111380;28;20210;-72
2021/09/24 05:37:20;;;;;;;14.77;4.07;;;12.80;99.90;;;;;;5111296;28;20765;-72
2021/09/24 05:39:48;;;;;;;21.17;4.03;;;12.80;99.90;;;;;;5111482;28;20250;-73
2021/09/24 05:42:14;;;;;;;12.23;3.70;;;12.80;99.90;;;;;;5111406;28;20254;-72
2021/09/24 05:44:41;;;;;;;21.40;5.40;;;12.90;99.90;;;;;;5111438;28;20461;-72
2021/09/24 05:47:08;;;;;;;17.83;4.57;;;12.80;99.90;;;;;;5111343;28;20206;-72
2021/09/24 05:49:35;;;;;;;17.30;5.00;;;12.70;99.90;;;;;;5111239;28;20206;-73
2021/09/24 05:52:03;;;;;;;19.20;4.43;;;12.70;99.90;;;;;;5111174;28;20205;-73
2021/09/24 05:54:30;;;;;;;18.70;4.37;;;12.70;99.90;;;;;;5110470;28;20206;-73
2021/09/24 05:56:58;;;;;;;20.57;4.37;;;12.70;99.90;;;;;;5110865;28;20767;-74
2021/09/24 05:59:25;;;;;;;19.70;3.90;;;12.60;99.90;;;;;;5110267;27;20283;-73
2021/09/24 06:01:52;;;;;;;21.80;4.57;;;12.60;99.90;;;;;;5110887;28;20737;-73
2021/09/24 06:04:19;;;;;;;18.30;4.27;;;12.70;99.90;;;;;;5110590;28;20251;-73
2021/09/24 06:06:46;;;;;;;14.07;3.90;;;12.60;99.90;;;;;;5110943;28;20225;-73
2021/09/24 06:09:13;;;;;;;19.17;3.67;;;12.60;99.90;;;;;;5111189;28;20231;-73
2021/09/24 06:11:39;;;;;;;13.53;4.40;;;12.60;99.90;;;;;;5111197;27;20251;-73
2021/09/24 06:14:07;;;;;;;21.50;4.10;;;12.50;99.90;;;;;;5110922;28;20265;-73
2021/09/24 06:16:34;;;;;;;11.73;4.00;;;12.50;99.90;;;;;;5110300;28;20202;-74
2021/09/24 06:19:01;;;;;;;17.83;3.60;;;12.50;99.90;;;;;;5110895;28;20230;-74
2021/09/24 06:21:29;;;;;;;15.57;4.47;;;12.50;99.90;;;;;;5110482;28;20275;-73
2021/09/24 06:23:56;;;;;;;20.90;4.40;;;12.50;99.90;;;;;;5110678;28;20240;-73
2021/09/24 06:26:23;;;;;;;21.10;4.57;;;12.50;99.90;;;;;;5109683;28;20206;-73
2021/09/24 06:28:50;;;;;;;12.97;3.90;;;12.50;99.90;;;;;;5110170;28;20884;-72
2021/09/24 06:31:18;;;;;;;13.67;3.50;;;12.50;99.90;;;;;;5110593;28;20205;-73
2021/09/24 06:33:44;;;;;;;19.03;3.70;;;12.50;99.90;;;;;;5110158;28;20733;-73
2021/09/24 06:36:13;;;;;;;19.20;4.13;;;12.50;99.90;;;;;;5110483;28;20202;-74
2021/09/24 06:38:39;;;;;;;16.93;4.00;;;12.50;99.90;;;;;;5110561;28;20230;-73
2021/09/24 06:41:07;;;;;;;17.80;3.93;;;12.40;99.90;;;;;;5110680;28;20266;-73
2021/09/24 06:43:33;;;;;;;15.53;4.07;;;12.50;99.90;;;;;;5110524;28;20210;-72
2021/09/24 06:46:00;;;;;;;18.30;3.90;;;12.50;99.90;;;;;;5110555;28;20214;-73
2021/09/24 06:48:28;;;;;;;12.47;3.60;;;12.60;99.90;;;;;;5110187;28;20202;-73
2021/09/24 06:50:55;;;;;;;20.10;4.70;;;12.70;99.90;;;;;;5109531;28;20613;-73
2021/09/24 06:53:23;;;;;;;16.33;4.10;;;12.70;99.90;;;;;;5110323;28;20322;-72
2021/09/24 06:55:50;;;;;;;14.50;3.70;;;12.70;99.90;;;;;;5110055;28;20445;-74
2021/09/24 06:58:16;;;;;;;16.83;4.50;;;12.70;99.90;;;;;;5109642;28;20330;-74
2021/09/24 07:00:43;;;;;;;16.60;4.00;;;12.80;99.90;;;;;;5110235;28;20624;-73
2021/09/24 07:03:09;;;;;;;14.93;3.80;;;12.80;99.90;;;;;;5109736;28;20255;-73
2021/09/24 07:05:37;;;;;;;13.23;3.67;;;12.90;99.90;;;;;;5106361;28;20210;-73
2021/09/24 07:08:04;;;;;;;16.37;4.07;;;13.00;99.90;;;;;;5086107;28;20276;-75
2021/09/24 07:10:31;;;;;;;18.70;4.43;;;13.00;99.90;;;;;;5085957;28;20625;-75
2021/09/24 07:12:58;;;;;;;20.47;4.33;;;13.10;99.90;;;;;;5086373;28;20248;-75
2021/09/24 07:15:24;;;;;;;18.47;5.37;;;13.20;99.90;;;;;;5086129;28;20276;-75
2021/09/24 07:17:51;;;;;;;13.87;4.10;;;13.20;99.90;;;;;;5088557;28;20234;-75
2021/09/24 07:20:18;;;;;;;16.37;4.60;;;13.20;99.90;;;;;;5106112;28;20250;-75
2021/09/24 07:22:46;;;;;;;17.00;4.73;;;13.30;99.90;;;;;;5106340;28;20206;-73
2021/09/24 07:25:13;;;;;;;13.67;4.17;;;13.50;99.90;;;;;;5105863;28;20696;-73
2021/09/24 07:27:39;;;;;;;11.10;3.47;;;13.60;99.90;;;;;;5105479;28;20206;-73
2021/09/24 07:30:07;;;;;;;12.23;3.67;;;13.70;99.90;;;;;;5106530;28;20202;-74
2021/09/24 07:32:36;;;;;;;28.17;5.77;;;13.80;99.90;;;;;;5106309;28;20202;-73
2021/09/24 07:35:03;;;;;;;19.50;4.63;;;13.90;99.90;;;;;;5106424;28;20210;-73
2021/09/24 07:37:30;;;;;;;12.80;3.97;;;13.90;99.90;;;;;;5105935;28;20811;-73
2021/09/24 07:39:58;;;;;;;11.80;3.57;;;14.00;99.90;;;;;;5106017;28;20769;-73
2021/09/24 07:42:24;;;;;;;14.70;4.10;;;14.00;99.90;;;;;;5106081;28;20202;-73
2021/09/24 07:44:51;;;;;;;17.57;4.47;;;14.10;99.90;;;;;;5106155;28;20206;-73
2021/09/24 07:47:17;;;;;;;17.53;4.23;;;14.20;99.90;;;;;;5105899;28;20210;-73
2021/09/24 07:49:45;;;;;;;16.97;4.20;;;14.20;99.90;;;;;;5105831;28;20210;-73
2021/09/24 07:52:12;;;;;;;14.10;4.00;;;14.40;99.90;;;;;;5105593;28;20226;-73
2021/09/24 07:54:38;;;;;;;18.77;4.83;;;14.40;99.90;;;;;;5100388;28;20230;-73
2021/09/24 07:57:06;;;;;;;16.43;4.23;;;14.60;99.90;;;;;;5085768;28;20640;-73
2021/09/24 07:59:33;;;;;;;14.37;3.60;;;14.60;99.90;;;;;;5085191;28;20779;-73
2021/09/24 08:02:00;;;;;;;19.03;4.00;;;14.60;99.90;;;;;;5085546;28;20688;-73
2021/09/24 08:04:27;;;;;;;18.67;4.77;;;14.70;99.90;;;;;;5085174;28;20234;-73
2021/09/24 08:06:53;;;;;;;16.80;4.43;;;14.80;99.90;;;;;;5085547;28;20279;-73
2021/09/24 08:09:20;;;;;;;15.50;3.90;;;14.80;99.90;;;;;;5085341;28;20452;-74
2021/09/24 08:11:47;;;;;;;14.00;3.80;;;14.80;99.90;;;;;;5085251;28;20206;-73
2021/09/24 08:14:15;;;;;;;17.03;4.03;;;14.80;99.90;;;;;;5085435;28;20253;-72
2021/09/24 08:16:42;;;;;;;14.40;3.63;;;15.00;99.90;;;;;;5085079;28;20880;-72
2021/09/24 08:19:09;;;;;;;15.30;4.10;;;14.90;99.90;;;;;;5085151;28;20257;-73
2021/09/24 08:21:35;;;;;;;13.93;4.03;;;15.00;99.90;;;;;;5085168;28;20206;-74
2021/09/24 08:24:02;;;;;;;16.03;4.43;;;15.10;99.90;;;;;;5097861;28;20206;-73
2021/09/24 08:26:28;;;;;;;15.47;4.73;;;15.10;99.90;;;;;;5105159;28;20228;-74
2021/09/24 08:28:55;;;;;;;17.33;4.33;;;15.10;99.90;;;;;;5108753;28;20248;-74
2021/09/24 08:31:23;;;;;;;12.80;4.27;;;15.20;99.90;;;;;;5108424;28;20240;-74
2021/09/24 08:33:50;;;;;;;17.10;5.40;;;15.30;99.90;;;;;;5108325;28;20201;-74
2021/09/24 08:36:17;;;;;;;14.60;4.03;;;15.40;99.90;;;;;;5108298;28;20213;-74
2021/09/24 08:38:44;;;;;;;15.40;4.77;;;15.40;99.90;;;;;;5108224;28;20699;-74
2021/09/24 08:41:11;;;;;;;13.20;4.10;;;15.30;99.90;;;;;;5100726;28;20234;-74
2021/09/24 08:43:38;;;;;;;15.77;3.90;;;15.30;99.90;;;;;;5107587;28;20206;-74
2021/09/24 08:46:04;;;;;;;15.10;3.83;;;15.30;99.90;;;;;;5109658;28;20202;-75
2021/09/24 08:48:34;;;;;;;21.33;4.37;;;15.30;99.90;;;;;;5109176;28;20259;-74
2021/09/24 08:51:01;;;;;;;21.77;4.20;;;15.40;99.90;;;;;;5108903;28;20220;-74
2021/09/24 08:53:28;;;;;;;15.70;3.77;;;15.50;99.90;;;;;;5109036;28;20769;-73
2021/09/24 08:55:54;;;;;;;13.30;3.93;;;15.60;99.90;;;;;;5108312;28;20267;-74
2021/09/24 08:58:21;;;;;;;14.90;3.90;;;15.70;99.90;;;;;;5103981;28;20277;-74
2021/09/24 09:00:48;;;;;;;13.37;3.70;;;15.70;99.90;;;;;;5105257;28;20209;-74
2021/09/24 09:03:18;;;;;;;12.83;3.70;;;15.80;99.90;;;;;;5106939;28;20247;-74
2021/09/24 09:05:47;;;;;;;16.07;3.97;;;15.90;99.90;;;;;;5107659;28;20225;-74
2021/09/24 09:08:17;;;;;;;17.23;3.83;;;15.80;99.90;;;;;;5103027;28;20320;-73
2021/09/24 09:10:55;;;;;;;14.07;3.93;;;15.80;99.90;;;;;;5102603;28;20205;-74
2021/09/24 09:13:26;;;;;;;15.83;4.03;;;15.80;99.90;;;;;;5102224;28;20197;-74
2021/09/24 09:15:55;;;;;;;17.23;4.03;;;15.80;99.90;;;;;;5103805;28;20239;-74
2021/09/24 09:18:22;;;;;;;15.17;3.93;;;15.80;99.90;;;;;;5092559;28;20234;-74
2021/09/24 09:20:51;;;;;;;15.40;3.63;;;15.90;99.90;;;;;;5102852;28;20625;-74
2021/09/24 09:23:24;;;;;;;14.13;3.50;;;15.90;99.90;;;;;;5099707;28;20543;-74
2021/09/24 09:25:55;;;;;;;17.00;3.77;;;16.00;99.90;;;;;;5100141;28;20207;-74
2021/09/24 09:28:29;;;;;;;17.43;4.27;;;15.90;99.90;;;;;;5091769;27;20214;-74
2021/09/24 09:30:56;;;;;;;18.00;3.97;;;16.00;99.90;;;;;;5092336;28;20195;-73
2021/09/24 09:33:24;;;;;;;14.13;3.53;;;16.00;99.90;;;;;;5091771;28;20194;-73
2021/09/24 09:35:54;;;;;;;17.10;4.37;;;16.10;99.90;;;;;;5094152;28;20234;-73
2021/09/24 09:38:25;;;;;;;15.17;3.87;;;16.10;99.90;;;;;;5090916;28;20234;-73
2021/09/24 09:40:54;;;;;;;13.53;3.43;;;16.20;99.90;;;;;;5094586;28;20681;-73
2021/09/24 09:43:28;;;;;;;19.03;4.47;;;16.10;99.90;;;;;;5096370;28;20267;-74
2021/09/24 09:45:56;;;;;;;11.90;3.73;;;16.10;99.90;;;;;;5093294;28;20191;-74
2021/09/24 09:48:23;;;;;;;13.97;3.20;;;16.00;99.90;;;;;;5098516;28;20846;-74
2021/09/24 09:50:51;;;;;;;14.67;3.43;;;16.00;99.90;;;;;;5096439;28;20226;-73
2021/09/24 09:53:19;;;;;;;12.83;3.37;;;16.00;99.90;;;;;;5096160;28;20641;-74
2021/09/24 09:55:50;;;;;;;14.13;3.43;;;16.00;99.90;;;;;;5101649;28;20206;-74
2021/09/24 09:58:18;;;;;;;12.70;3.93;;;15.90;99.90;;;;;;5098207;28;20333;-74
2021/09/24 10:00:57;;;;;;;15.73;4.20;;;15.90;99.90;;;;;;5093485;28;20194;-74
2021/09/24 10:03:30;;;;;;;17.67;3.60;;;15.80;99.90;;;;;;5095868;28;20683;-74
2021/09/24 10:05:59;;;;;;;17.93;3.80;;;15.80;99.90;;;;;;5100307;28;20210;-74
2021/09/24 10:08:27;;;;;;;13.90;3.40;;;15.90;99.90;;;;;;5095708;28;20202;-73
2021/09/24 10:11:13;;;;;;;12.77;3.33;;;15.90;99.90;;;;;;5097710;28;20213;-74
2021/09/24 10:13:52;;;;;;;12.23;3.30;;;16.00;99.90;;;;;;5095727;28;20222;-74
2021/09/24 10:16:20;;;;;;;15.80;3.43;;;16.10;99.90;;;;;;5098529;28;20679;-73
2021/09/24 10:18:47;;;;;;;15.50;3.80;;;16.10;99.90;;;;;;5095157;28;20664;-74
2021/09/24 10:21:15;;;;;;;11.30;3.10;;;16.20;99.90;;;;;;5096037;28;20265;-74
2021/09/24 10:23:43;;;;;;;12.17;3.80;;;16.40;99.90;;;;;;5095993;28;20239;-74
2021/09/24 10:26:17;;;;;;;12.37;3.30;;;16.50;99.90;;;;;;5096525;28;20579;-74
2021/09/24 10:28:44;;;;;;;9.00;2.90;;;16.50;99.90;;;;;;5093308;28;20225;-72
2021/09/24 10:31:15;;;;;;;13.63;3.57;;;16.50;99.90;;;;;;5098759;28;20202;-72
2021/09/24 10:33:49;;;;;;;14.90;3.53;;;16.40;99.90;;;;;;5095549;28;20227;-72
2021/09/24 10:36:46;;;;;;;12.23;3.40;;;16.40;99.90;;;;;;5092251;28;20226;-73
2021/09/24 10:39:42;;;;;;;9.83;2.80;;;16.30;99.90;;;;;;5097345;28;20591;-73
2021/09/24 10:42:47;;;;;;;10.17;2.67;;;16.30;99.90;;;;;;5094974;28;20205;-73
2021/09/24 10:45:17;;;;;;;8.53;2.70;;;16.20;99.90;;;;;;5081586;28;20209;-73
2021/09/24 10:48:00;;;;;;;11.10;2.93;;;16.30;99.90;;;;;;5095075;28;20195;-73
2021/09/24 10:51:06;;;;;;;9.40;2.87;;;16.30;99.90;;;;;;5089626;28;20199;-73
2021/09/24 10:53:47;;;;;;;10.57;2.50;;;16.20;99.90;;;;;;5089757;28;20199;-73
2021/09/24 10:56:32;;;;;;;13.80;2.80;;;16.20;99.90;;;;;;5095297;28;20244;-73
2021/09/24 10:59:21;;;;;;;7.20;2.80;;;16.20;99.90;;;;;;5094724;28;20234;-73
2021/09/24 11:01:48;;;;;;;9.73;2.50;;;16.10;99.90;;;;;;5095857;28;20737;-73
2021/09/24 11:04:15;;;;;;;13.07;3.10;;;16.10;99.90;;;;;;5094818;28;20217;-74
2021/09/24 11:06:44;;;;;;;7.03;2.00;;;16.10;99.90;;;;;;5094409;28;20230;-74
2021/09/24 11:09:14;;;;;;;12.33;3.23;;;16.20;99.90;;;;;;5094173;28;20206;-74
2021/09/24 11:11:45;;;;;;;7.57;2.23;;;16.30;99.90;;;;;;5094837;28;20202;-73
2021/09/24 11:14:24;;;;;;;4.23;2.30;;;16.30;99.90;;;;;;5095226;28;20238;-73
2021/09/24 11:16:52;;;;;;;6.70;1.80;;;16.30;99.90;;;;;;5096160;28;20245;-73
2021/09/24 11:19:38;;;;;;;5.13;2.00;;;16.30;99.90;;;;;;5096562;28;20573;-72
2021/09/24 11:22:12;;;;;;;6.77;2.20;;;16.40;99.90;;;;;;5095497;28;20204;-72
2021/09/24 11:24:42;;;;;;;6.53;2.40;;;16.50;99.90;;;;;;5094771;28;20212;-72
2021/09/24 11:27:11;;;;;;;5.73;1.90;;;16.60;99.90;;;;;;5095166;27;20264;-73
2021/09/24 11:29:42;;;;;;;4.70;1.97;;;16.70;99.90;;;;;;5094591;28;20307;-73
2021/09/24 11:32:11;;;;;;;5.43;2.07;;;16.80;99.90;;;;;;5095439;28;20238;-73
2021/09/24 11:34:54;;;;;;;5.47;1.57;;;16.80;99.90;;;;;;5094178;28;20203;-73
2021/09/24 11:37:22;;;;;;;5.23;1.60;;;16.90;99.90;;;;;;5094188;28;21010;-73
2021/09/24 11:39:58;;;;;;;6.40;1.90;;;17.00;99.90;;;;;;5096110;28;20312;-73
2021/09/24 11:42:26;;;;;;;5.40;1.80;;;16.90;99.90;;;;;;5094872;28;20286;-73
2021/09/24 11:44:55;;;;;;;5.53;1.90;;;16.90;99.90;;;;;;5094941;28;20247;-73
2021/09/24 11:47:24;;;;;;;4.53;1.53;;;16.80;99.90;;;;;;5097154;28;20233;-73
2021/09/24 11:49:56;;;;;;;6.17;1.60;;;16.80;99.90;;;;;;5094264;28;20198;-73
2021/09/24 11:52:24;;;;;;;5.57;1.97;;;16.80;99.90;;;;;;5091971;28;20250;-73
2021/09/24 11:54:51;;;;;;;2.47;1.33;;;16.80;99.90;;;;;;5092288;28;20234;-73
2021/09/24 11:57:19;;;;;;;5.43;1.43;;;16.90;99.90;;;;;;5090867;28;20199;-77
2021/09/24 11:59:46;;;;;;;4.30;1.50;;;16.90;99.90;;;;;;5091478;28;20305;-75
2021/09/24 12:02:20;;;;;;;5.20;1.63;;;17.00;99.90;;;;;;5091859;28;20246;-75
2021/09/24 12:04:57;;;;;;;5.90;1.70;;;17.10;99.90;;;;;;5093596;28;20502;-74
2021/09/24 12:07:24;;;;;;;5.23;1.87;;;17.00;99.90;;;;;;5093181;28;20221;-75
2021/09/24 12:09:56;;;;;;;4.40;1.60;;;17.00;99.90;;;;;;5101087;28;20236;-75
2021/09/24 12:12:25;;;;;;;4.00;1.43;;;17.00;99.90;;;;;;5100143;28;20209;-72
2021/09/24 12:14:56;;;;;;;3.20;1.20;;;17.00;99.90;;;;;;5100337;28;20338;-72
2021/09/24 12:17:25;;;;;;;2.27;1.50;;;16.90;99.90;;;;;;5100757;28;20262;-72
2021/09/24 12:19:51;;;;;;;5.23;1.63;;;16.80;99.90;;;;;;5100674;28;20279;-72
2021/09/24 12:22:19;;;;;;;6.17;1.50;;;16.70;99.90;;;;;;5100394;28;20290;-72
2021/09/24 12:24:47;;;;;;;3.50;1.07;;;16.70;99.90;;;;;;5101084;28;20383;-72
2021/09/24 12:27:15;;;;;;;3.93;1.57;;;16.70;99.90;;;;;;5100791;28;20218;-72
2021/09/24 12:29:43;;;;;;;4.83;1.20;;;16.80;99.90;;;;;;5101637;28;20279;-72
2021/09/24 12:32:12;;;;;;;4.17;1.70;;;16.90;99.90;;;;;;5101594;28;20807;-72
2021/09/24 12:34:45;;;;;;;3.63;2.30;;;16.90;99.90;;;;;;5102494;28;20267;-72
2021/09/24 12:37:13;;;;;;;2.17;1.27;;;17.00;99.90;;;;;;5102380;28;20241;-73
2021/09/24 12:39:41;;;;;;;4.17;1.67;;;16.90;99.90;;;;;;5101841;28;20307;-72
2021/09/24 12:42:09;;;;;;;2.13;1.20;;;17.00;99.90;;;;;;5101415;28;20758;-72
2021/09/24 12:44:51;;;;;;;3.63;1.30;;;17.00;99.90;;;;;;5101369;28;20310;-73